Time;durP1;ratioP1;P1;durP2;ratioP2;P2;SDS_P1;SDS_P2;PMS_P1;PMS_P2;Temp;Humidity;BMP_temperature;BMP_pressure;BME280_temperature;BME280_humidity;BME280_pressure;Samples;Min_cycle;Max_cycle;Signal;HPM_P1;HPM_P2
2023/07/20 00:00:22;;;;;;;3.00;1.90;;;;;;;20.04;48.27;98378.30;107960;1307;22267;-50
2023/07/20 00:02:50;;;;;;;4.80;1.50;;;;;;;19.97;48.97;98374.91;107986;1295;22263;-49
2023/07/20 00:05:18;;;;;;;5.30;2.10;;;;;;;19.95;49.17;98378.23;107968;1307;22323;-54
2023/07/20 00:07:43;;;;;;;3.90;2.30;;;;;;;19.92;49.40;98373.83;107983;1307;22456;-45
2023/07/20 00:10:09;;;;;;;3.60;1.90;;;;;;;19.92;49.49;98375.13;107986;1307;22225;-49
2023/07/20 00:12:34;;;;;;;5.40;1.70;;;;;;;19.89;49.54;98375.05;107980;1307;23474;-49
2023/07/20 00:15:00;;;;;;;2.90;1.80;;;;;;;19.87;50.05;98376.56;107976;1307;22237;-48
2023/07/20 00:17:25;;;;;;;3.90;2.60;;;;;;;19.83;50.48;98376.92;107995;1307;22241;-49
2023/07/20 00:19:50;;;;;;;4.30;1.80;;;;;;;19.83;50.39;98374.82;107977;1307;23318;-56
2023/07/20 00:22:16;;;;;;;1.80;1.60;;;;;;;19.81;50.47;98377.77;107977;1307;23226;-46
2023/07/20 00:24:41;;;;;;;3.40;2.00;;;;;;;19.75;50.97;98377.15;108012;1307;22269;-49
2023/07/20 00:27:06;;;;;;;4.30;1.90;;;;;;;19.73;50.97;98379.77;107970;1307;22249;-49
2023/07/20 00:29:31;;;;;;;4.40;2.00;;;;;;;19.69;50.74;98381.79;107986;1307;22383;-52
2023/07/20 00:31:58;;;;;;;6.10;1.90;;;;;;;19.67;50.41;98379.22;107969;1307;22358;-48
2023/07/20 00:34:23;;;;;;;3.70;1.90;;;;;;;19.66;50.65;98381.88;107974;1286;22446;-47
2023/07/20 00:36:49;;;;;;;2.90;1.60;;;;;;;19.65;50.06;98378.88;107959;1307;23018;-48
2023/07/20 00:39:14;;;;;;;4.60;2.20;;;;;;;19.60;49.91;98374.06;107967;1307;22907;-48
2023/07/20 00:41:39;;;;;;;4.90;1.60;;;;;;;19.57;50.21;98375.14;107975;1307;22262;-51
2023/07/20 00:44:05;;;;;;;3.50;2.00;;;;;;;19.57;49.97;98373.84;107946;1307;22623;-48
2023/07/20 00:46:32;;;;;;;5.80;1.90;;;;;;;19.58;50.31;98373.10;107965;1307;22855;-47
2023/07/20 00:48:58;;;;;;;4.80;2.00;;;;;;;19.56;50.45;98376.40;107956;1307;23530;-50
2023/07/20 00:51:25;;;;;;;3.90;1.90;;;;;;;19.58;50.26;98380.92;107964;1307;22219;-45
2023/07/20 00:53:50;;;;;;;3.80;2.00;;;;;;;19.58;50.23;98392.46;107981;1307;22413;-53
2023/07/20 00:56:16;;;;;;;5.10;2.00;;;;;;;19.59;50.53;98397.00;107961;1307;22251;-46
2023/07/20 00:58:41;;;;;;;4.20;1.90;;;;;;;19.60;50.08;98403.97;107940;1307;22238;-42
2023/07/20 01:01:07;;;;;;;5.00;2.10;;;;;;;19.59;50.11;98405.13;107968;1307;23112;-47
2023/07/20 01:03:32;;;;;;;3.30;1.80;;;;;;;19.60;50.23;98402.20;107941;1307;22409;-48
2023/07/20 01:06:08;;;;;;;3.60;1.80;;;;;;;19.61;49.95;98406.67;107977;1307;22421;-51
2023/07/20 01:08:45;;;;;;;9.30;1.80;;;;;;;19.56;50.12;98410.03;107957;1307;22351;-46
2023/07/20 01:11:27;;;;;;;2.60;1.80;;;;;;;19.54;50.39;98410.99;107953;1307;22328;-54
2023/07/20 01:13:53;;;;;;;2.50;1.90;;;;;;;19.55;50.38;98399.51;107948;1307;23322;-46
2023/07/20 01:16:18;;;;;;;3.90;1.70;;;;;;;19.57;50.15;98399.80;107961;1307;22413;-54
2023/07/20 01:18:44;;;;;;;4.60;1.90;;;;;;;19.56;50.49;98402.77;107939;1307;22738;-54
2023/07/20 01:21:18;;;;;;;3.90;2.10;;;;;;;19.58;50.58;98404.38;107970;1307;22445;-50
2023/07/20 01:24:01;;;;;;;3.70;2.10;;;;;;;19.60;50.58;98404.02;107955;1307;22245;-48
2023/07/20 01:26:41;;;;;;;5.50;2.00;;;;;;;19.62;50.29;98397.68;107942;1307;22378;-46
2023/07/20 01:29:41;;;;;;;3.60;1.90;;;;;;;19.62;50.58;98388.23;107952;1307;22225;-45
2023/07/20 01:32:09;;;;;;;4.10;1.90;;;;;;;19.65;50.47;98391.19;107909;1307;23197;-48
2023/07/20 01:34:36;;;;;;;2.90;1.80;;;;;;;19.68;50.69;98402.58;107936;1307;22227;-51
2023/07/20 01:37:03;;;;;;;3.50;1.70;;;;;;;19.70;50.45;98408.72;107959;1289;23328;-54
2023/07/20 01:39:28;;;;;;;3.00;2.00;;;;;;;19.72;50.06;98408.71;107945;1307;23316;-55
2023/07/20 01:41:55;;;;;;;4.40;1.80;;;;;;;19.73;50.33;98413.13;107802;1307;22345;-45
2023/07/20 01:44:20;;;;;;;3.60;2.10;;;;;;;19.73;50.31;98414.35;107982;1307;22917;-56
2023/07/20 01:46:45;;;;;;;2.30;1.70;;;;;;;19.68;51.72;98422.45;107952;1307;22241;-53
2023/07/20 01:49:10;;;;;;;2.10;1.90;;;;;;;19.68;53.75;98425.72;107812;1307;22264;-47
2023/07/20 01:51:36;;;;;;;5.20;1.90;;;;;;;19.68;54.12;98433.86;107943;1307;22277;-53
2023/07/20 01:54:01;;;;;;;6.90;2.20;;;;;;;19.64;54.33;98432.75;107947;1307;22419;-46
2023/07/20 01:56:26;;;;;;;3.30;1.80;;;;;;;19.58;54.23;98429.92;107714;1307;22774;-54
2023/07/20 01:58:51;;;;;;;2.60;1.70;;;;;;;19.55;55.90;98434.92;107942;1307;22267;-51
2023/07/20 02:01:17;;;;;;;6.40;1.90;;;;;;;19.52;57.31;98438.89;107956;1307;22987;-50
2023/07/20 02:03:42;;;;;;;3.60;1.90;;;;;;;19.47;61.30;98443.38;107974;1307;22259;-48
2023/07/20 02:06:07;;;;;;;3.00;1.90;;;;;;;19.41;62.73;98447.05;107942;1307;22305;-51
2023/07/20 02:08:33;;;;;;;5.30;2.00;;;;;;;19.33;63.98;98449.77;107975;1307;22256;-53
2023/07/20 02:10:58;;;;;;;3.00;2.00;;;;;;;19.25;63.17;98452.05;107958;1307;22479;-48
2023/07/20 02:13:24;;;;;;;2.10;1.80;;;;;;;19.21;62.67;98456.59;107653;1307;22298;-49
2023/07/20 02:15:50;;;;;;;2.90;1.90;;;;;;;19.17;61.77;98463.23;107951;1307;22216;-49
2023/07/20 02:18:16;;;;;;;2.50;2.10;;;;;;;19.13;63.67;98468.23;107966;1307;22240;-48
2023/07/20 02:20:42;;;;;;;7.00;1.90;;;;;;;19.11;61.84;98470.04;107940;1307;22463;-48
2023/07/20 02:23:07;;;;;;;7.90;2.10;;;;;;;19.05;61.89;98474.06;107968;1307;22251;-54
2023/07/20 02:25:32;;;;;;;7.00;2.10;;;;;;;18.94;62.29;98472.88;107957;1307;22248;-46
2023/07/20 02:27:58;;;;;;;4.50;2.00;;;;;;;18.82;62.97;98471.43;107944;1307;22326;-49
2023/07/20 02:30:24;;;;;;;3.80;2.20;;;;;;;18.71;64.82;98477.01;107959;1307;23135;-49
2023/07/20 02:32:49;;;;;;;3.70;2.30;;;;;;;18.60;64.11;98482.00;107944;1307;22408;-48
2023/07/20 02:35:15;;;;;;;7.00;2.50;;;;;;;18.53;62.84;98478.95;107954;1307;22257;-46
2023/07/20 02:37:41;;;;;;;2.70;2.20;;;;;;;18.40;67.13;98484.00;107941;1307;22311;-46
2023/07/20 02:40:07;;;;;;;7.00;2.50;;;;;;;18.31;68.94;98487.89;107966;1307;22436;-54
2023/07/20 02:42:33;;;;;;;5.40;2.50;;;;;;;18.22;69.36;98494.98;107953;1307;22174;-54
2023/07/20 02:44:58;;;;;;;5.30;2.50;;;;;;;18.14;70.95;98502.75;107952;1307;22473;-52
2023/07/20 02:47:23;;;;;;;6.60;3.00;;;;;;;18.08;72.57;98505.13;107958;1307;22388;-47
2023/07/20 02:49:49;;;;;;;6.00;2.60;;;;;;;18.00;72.64;98504.09;107930;1307;22430;-47
2023/07/20 02:52:14;;;;;;;7.50;3.20;;;;;;;17.94;76.51;98504.19;107955;1307;22340;-48
2023/07/20 02:54:40;;;;;;;8.40;3.40;;;;;;;17.88;77.89;98502.13;107938;1307;22475;-46
2023/07/20 02:57:05;;;;;;;7.40;2.90;;;;;;;17.84;76.00;98510.80;107835;1307;172245;-54
2023/07/20 02:59:31;;;;;;;4.50;3.10;;;;;;;17.72;76.18;98514.33;107853;1307;23102;-54
2023/07/20 03:01:57;;;;;;;7.80;2.70;;;;;;;17.61;76.58;98520.41;107959;1307;22930;-55
2023/07/20 03:04:23;;;;;;;7.80;3.20;;;;;;;17.55;76.21;98515.18;107998;1307;23186;-51
2023/07/20 03:06:49;;;;;;;6.80;3.10;;;;;;;17.46;77.65;98504.16;107977;1307;22222;-51
2023/07/20 03:09:15;;;;;;;5.90;3.20;;;;;;;17.43;80.70;98496.13;107969;1307;22289;-51
2023/07/20 03:13:17;;;;;;;9.00;3.40;;;;;;;17.44;80.74;98491.78;106587;1308;544800;-47
2023/07/20 03:15:42;;;;;;;6.30;3.20;;;;;;;17.40;80.67;98493.83;107265;1313;22420;-54
2023/07/20 03:18:08;;;;;;;8.40;3.20;;;;;;;17.35;78.89;98499.42;107254;1313;22332;-52
2023/07/20 03:20:35;;;;;;;6.10;3.40;;;;;;;17.33;80.37;98506.17;107223;1299;22598;-50
2023/07/20 03:23:00;;;;;;;7.50;2.90;;;;;;;17.30;79.68;98511.97;107245;1313;22249;-45
2023/07/20 03:25:26;;;;;;;5.20;3.10;;;;;;;17.26;79.91;98506.61;107358;1312;22377;-48
2023/07/20 03:27:51;;;;;;;6.40;3.20;;;;;;;17.24;80.32;98503.13;107333;1310;292823;-48
2023/07/20 03:30:16;;;;;;;7.80;3.00;;;;;;;17.19;80.77;98511.59;107746;1309;23358;-47
2023/07/20 03:32:42;;;;;;;4.80;3.10;;;;;;;17.14;81.83;98519.64;107753;1308;23148;-51
2023/07/20 03:35:07;;;;;;;5.80;3.20;;;;;;;17.16;80.82;98518.91;107762;1308;22222;-48
2023/07/20 03:37:35;;;;;;;7.00;3.80;;;;;;;17.18;81.08;98514.48;107778;1308;22317;-46
2023/07/20 03:40:00;;;;;;;7.60;3.20;;;;;;;17.16;81.98;98515.33;107768;1308;23066;-52
2023/07/20 03:42:25;;;;;;;6.20;3.40;;;;;;;17.18;80.04;98516.61;107782;1308;22246;-55
2023/07/20 03:44:51;;;;;;;9.00;3.40;;;;;;;17.17;79.90;98522.54;107757;1308;23163;-48
2023/07/20 03:47:16;;;;;;;10.20;3.90;;;;;;;17.16;78.78;98518.90;107737;1308;23076;-47
2023/07/20 03:49:41;;;;;;;5.90;3.40;;;;;;;17.13;82.08;98515.85;107764;1308;22435;-48
2023/07/20 03:52:07;;;;;;;8.00;3.30;;;;;;;17.13;82.28;98513.15;107740;1308;22835;-44
2023/07/20 03:54:32;;;;;;;8.80;3.50;;;;;;;17.12;81.86;98508.19;107762;1308;23126;-48
2023/07/20 03:56:58;;;;;;;6.30;3.30;;;;;;;17.06;82.48;98502.03;107739;1308;22440;-51
2023/07/20 03:59:23;;;;;;;4.90;3.20;;;;;;;17.02;81.53;98497.95;107737;1308;22431;-54
2023/07/20 04:01:48;;;;;;;8.10;3.50;;;;;;;16.99;82.50;98500.86;107746;1308;22284;-53
2023/07/20 04:04:16;;;;;;;5.30;3.30;;;;;;;16.99;83.98;98491.90;107755;1308;23254;-48
2023/07/20 04:06:44;;;;;;;;;;;;;;;16.98;84.41;98493.77;107776;1308;22440;-55
2023/07/20 04:09:09;;;;;;;7.70;3.30;;;;;;;16.98;87.48;98492.17;107779;1308;22249;-51
2023/07/20 04:11:35;;;;;;;4.20;3.20;;;;;;;16.99;86.00;98494.91;107752;1289;22246;-47
2023/07/20 04:14:00;;;;;;;5.20;3.10;;;;;;;17.01;82.99;98502.44;107751;1308;23232;-46
2023/07/20 04:16:26;;;;;;;9.70;3.30;;;;;;;17.05;81.51;98505.77;107762;1308;22267;-50
2023/07/20 04:18:52;;;;;;;7.60;3.50;;;;;;;17.04;83.66;98500.35;107777;1308;22230;-51
2023/07/20 04:21:17;;;;;;;5.90;3.10;;;;;;;17.05;82.81;98493.75;107742;1308;22424;-48
2023/07/20 04:23:42;;;;;;;5.40;2.90;;;;;;;17.03;81.81;98495.85;107739;1309;22176;-47
2023/07/20 04:26:08;;;;;;;4.30;3.30;;;;;;;17.05;80.53;98496.77;107763;1309;22428;-53
2023/07/20 04:28:33;;;;;;;6.70;3.30;;;;;;;17.09;82.16;98492.98;107749;1308;23314;-51
2023/07/20 04:31:15;;;;;;;4.70;2.80;;;;;;;17.13;81.92;98494.77;107750;1309;22435;-52
2023/07/20 04:33:41;;;;;;;4.20;3.20;;;;;;;17.15;82.63;98487.34;107737;1309;22245;-48
2023/07/20 04:36:07;;;;;;;6.70;3.20;;;;;;;17.19;80.77;98490.68;107740;1309;22451;-47
2023/07/20 04:38:33;;;;;;;6.10;3.00;;;;;;;17.22;82.54;98485.08;107742;1308;23268;-48
2023/07/20 04:40:58;;;;;;;7.20;3.40;;;;;;;17.22;85.62;98485.21;107763;1308;23056;-48
2023/07/20 04:43:24;;;;;;;6.70;3.60;;;;;;;17.24;84.00;98483.83;107757;1308;22495;-44
2023/07/20 04:45:50;;;;;;;9.10;3.30;;;;;;;17.26;86.18;98485.05;107749;1308;23266;-51
2023/07/20 04:48:17;;;;;;;6.70;3.50;;;;;;;17.30;85.92;98487.35;107762;1308;22319;-55
2023/07/20 04:50:44;;;;;;;5.50;3.60;;;;;;;17.32;85.57;98488.58;107779;1290;22108;-52
2023/07/20 04:53:10;;;;;;;10.50;3.50;;;;;;;17.31;84.22;98491.77;107764;1308;22411;-48
2023/07/20 04:55:36;;;;;;;4.90;3.40;;;;;;;17.23;83.54;98489.88;107766;1308;22463;-51
2023/07/20 04:58:03;;;;;;;6.20;3.50;;;;;;;17.15;82.97;98491.55;107759;1308;23299;-44
2023/07/20 05:00:29;;;;;;;5.10;3.30;;;;;;;17.09;83.18;98488.89;107755;1290;22308;-53
2023/07/20 05:02:55;;;;;;;6.40;3.60;;;;;;;17.09;84.59;98487.73;107771;1308;23037;-49
2023/07/20 05:05:20;;;;;;;6.00;3.50;;;;;;;17.11;84.14;98486.80;107757;1308;22217;-49
2023/07/20 05:07:46;;;;;;;5.00;3.60;;;;;;;17.16;84.54;98487.63;107752;1308;22247;-50
2023/07/20 05:10:11;;;;;;;8.10;3.60;;;;;;;17.22;82.68;98483.98;107746;1308;23147;-51
2023/07/20 05:12:36;;;;;;;9.30;3.40;;;;;;;17.23;83.26;98497.48;107747;1308;23528;-53
2023/07/20 05:15:03;;;;;;;4.70;3.40;;;;;;;17.32;82.03;98504.85;107758;1308;22945;-51
2023/07/20 05:17:29;;;;;;;8.40;3.70;;;;;;;17.37;82.31;98508.76;107743;1308;22208;-49
2023/07/20 05:19:54;;;;;;;5.40;3.70;;;;;;;17.41;82.40;98508.77;107780;1308;22261;-49
2023/07/20 05:22:20;;;;;;;4.30;3.40;;;;;;;17.40;81.35;98508.88;107756;1308;22418;-44
2023/07/20 05:24:45;;;;;;;7.70;4.20;;;;;;;17.35;81.62;98512.67;107769;1308;22274;-53
2023/07/20 05:27:10;;;;;;;5.90;4.20;;;;;;;17.37;82.11;98518.15;107749;1308;22476;-53
2023/07/20 05:29:36;;;;;;;6.10;3.90;;;;;;;17.40;81.46;98517.57;107752;1308;23162;-51
2023/07/20 05:32:02;;;;;;;8.00;3.90;;;;;;;17.37;81.06;98519.07;107739;1308;22224;-54
2023/07/20 05:34:27;;;;;;;7.40;3.60;;;;;;;17.32;80.98;98523.23;107771;1308;22235;-46
2023/07/20 05:36:53;;;;;;;6.90;3.90;;;;;;;17.40;81.35;98525.48;107743;1308;22226;-44
2023/07/20 05:39:18;;;;;;;8.60;3.70;;;;;;;17.47;79.44;98520.53;107757;1308;22258;-53
2023/07/20 05:41:43;;;;;;;5.30;3.60;;;;;;;17.56;78.02;98518.51;107782;1308;22452;-54
2023/07/20 05:44:08;;;;;;;5.60;3.70;;;;;;;17.60;77.80;98518.59;107757;1308;22439;-52
2023/07/20 05:46:34;;;;;;;7.50;4.10;;;;;;;17.66;77.87;98519.46;107739;1308;22942;-50
2023/07/20 05:49:00;;;;;;;5.80;3.60;;;;;;;17.69;79.64;98510.48;107765;1308;22305;-57
2023/07/20 05:51:25;;;;;;;7.70;4.30;;;;;;;17.70;79.23;98511.27;107739;1308;23011;-54
2023/07/20 05:53:50;;;;;;;13.90;4.00;;;;;;;17.73;80.19;98506.04;107760;1308;23150;-48
2023/07/20 05:56:16;;;;;;;7.20;4.20;;;;;;;17.76;79.88;98511.61;107735;1308;22311;-54
2023/07/20 05:58:42;;;;;;;7.10;3.70;;;;;;;17.76;80.72;98503.04;107747;1308;22249;-52
2023/07/20 06:01:07;;;;;;;12.70;3.80;;;;;;;17.77;78.23;98492.90;107726;1308;22428;-52
2023/07/20 06:03:33;;;;;;;8.20;3.50;;;;;;;17.76;77.89;98476.52;107735;1308;23009;-46
2023/07/20 06:06:00;;;;;;;6.80;3.50;;;;;;;17.79;79.83;98470.47;107796;1308;23146;-50
2023/07/20 06:08:26;;;;;;;6.80;3.50;;;;;;;17.87;79.77;98479.71;107745;1308;22239;-46
2023/07/20 06:10:52;;;;;;;5.60;3.60;;;;;;;17.91;79.84;98488.34;107779;1300;23054;-51
2023/07/20 06:13:17;;;;;;;6.10;3.30;;;;;;;17.93;78.19;98489.38;107768;1308;22320;-48
2023/07/20 06:15:43;;;;;;;7.50;3.40;;;;;;;17.96;77.15;98491.38;107743;1308;22289;-48
2023/07/20 06:18:08;;;;;;;6.60;3.20;;;;;;;17.97;77.34;98490.42;107774;1308;22262;-49
